createdAt,value
2023-01-09T00:02:00.482Z,8.50
2023-01-09T00:04:27.136Z,8.40
2023-01-09T00:06:54.298Z,8.50
2023-01-09T00:09:22.353Z,8.50
2023-01-09T00:11:49.959Z,8.50
2023-01-09T00:14:17.320Z,8.50
2023-01-09T00:16:44.263Z,8.50
2023-01-09T00:19:11.536Z,8.50
2023-01-09T00:21:38.306Z,8.50
2023-01-09T00:24:05.420Z,8.50
2023-01-09T00:26:32.329Z,8.40
2023-01-09T00:28:59.087Z,8.30
2023-01-09T00:31:25.786Z,8.40
2023-01-09T00:33:58.243Z,8.30
2023-01-09T00:36:24.961Z,8.30
2023-01-09T00:38:51.656Z,8.30
2023-01-09T00:41:23.285Z,8.30
2023-01-09T00:44:01.034Z,8.20
2023-01-09T00:46:34.317Z,8.20
2023-01-09T00:49:05.054Z,8.10
2023-01-09T00:51:31.742Z,8.00
2023-01-09T00:53:58.405Z,7.90
2023-01-09T00:56:25.766Z,8.00
2023-01-09T00:58:53.260Z,8.00
2023-01-09T01:01:19.975Z,8.10
2023-01-09T01:03:46.639Z,8.10
2023-01-09T01:06:31.815Z,8.10
2023-01-09T01:08:58.392Z,8.20
2023-01-09T01:11:25.325Z,8.20
2023-01-09T01:13:51.945Z,8.20
2023-01-09T01:16:18.775Z,8.10
2023-01-09T01:18:45.862Z,8.10
2023-01-09T01:21:14.193Z,8.10
2023-01-09T01:23:41.130Z,8.10
2023-01-09T01:26:13.204Z,8.00
2023-01-09T01:28:40.223Z,8.00
2023-01-09T01:31:07.425Z,8.00
2023-01-09T01:33:34.877Z,7.90
2023-01-09T01:36:05.404Z,7.90
2023-01-09T01:38:32.501Z,7.90
2023-01-09T01:40:59.477Z,7.90
2023-01-09T01:43:26.527Z,7.80
2023-01-09T01:45:53.184Z,7.80
2023-01-09T01:48:31.462Z,7.80
2023-01-09T01:51:05.092Z,7.70
2023-01-09T01:53:41.680Z,7.60
2023-01-09T01:56:19.885Z,7.50
2023-01-09T01:59:15.760Z,7.40
2023-01-09T02:01:45.392Z,7.40
2023-01-09T02:04:12.856Z,7.30
2023-01-09T02:06:40.099Z,7.40
2023-01-09T02:09:07.312Z,7.40
2023-01-09T02:11:34.667Z,7.40
2023-01-09T02:14:02.350Z,7.40
2023-01-09T02:16:51.882Z,7.30
2023-01-09T02:19:46.671Z,7.30
2023-01-09T02:22:30.314Z,7.20
2023-01-09T02:25:14.957Z,7.20
2023-01-09T02:28:12.552Z,7.10
2023-01-09T02:30:58.452Z,7.10
2023-01-09T02:33:49.834Z,7.10
2023-01-09T02:36:41.219Z,7.10
2023-01-09T02:39:22.305Z,6.90
2023-01-09T02:41:58.395Z,6.90
2023-01-09T02:44:27.287Z,6.70
2023-01-09T02:47:27.936Z,6.70
2023-01-09T02:49:59.483Z,6.70
2023-01-09T02:53:03.227Z,6.70
2023-01-09T02:55:49.377Z,6.60
2023-01-09T02:58:32.047Z,6.70
2023-01-09T03:00:58.671Z,6.70
2023-01-09T03:03:44.791Z,6.60
2023-01-09T03:06:20.627Z,6.70
2023-01-09T03:08:53.566Z,6.70
2023-01-09T03:11:21.954Z,6.70
2023-01-09T03:13:55.255Z,6.70
2023-01-09T03:16:28.968Z,6.80
2023-01-09T03:18:57.217Z,6.70
2023-01-09T03:21:24.341Z,6.70
2023-01-09T03:23:59.931Z,6.70
2023-01-09T03:26:29.283Z,6.80
2023-01-09T03:28:56.172Z,6.80
2023-01-09T03:31:23.092Z,6.70
2023-01-09T03:33:49.795Z,6.70
2023-01-09T03:36:20.365Z,6.70
2023-01-09T03:38:47.029Z,6.70
2023-01-09T03:41:13.631Z,6.70
2023-01-09T03:43:40.245Z,6.80
2023-01-09T03:46:07.094Z,6.80
2023-01-09T03:48:33.709Z,6.70
2023-01-09T03:51:00.291Z,6.80
2023-01-09T03:53:28.391Z,6.90
2023-01-09T03:55:57.106Z,6.90
2023-01-09T03:58:24.357Z,6.90
2023-01-09T04:00:52.297Z,6.90
2023-01-09T04:03:20.647Z,7.00
2023-01-09T04:05:49.771Z,6.90
2023-01-09T04:08:17.834Z,6.80
2023-01-09T04:10:49.500Z,6.80
2023-01-09T04:13:16.170Z,6.80
2023-01-09T04:15:43.097Z,6.80
2023-01-09T04:18:09.961Z,6.70
2023-01-09T04:20:36.565Z,6.80
2023-01-09T04:23:03.463Z,6.70
2023-01-09T04:25:30.215Z,6.70
2023-01-09T04:27:57.197Z,6.70
2023-01-09T04:30:23.831Z,6.60
2023-01-09T04:32:51.887Z,6.50
2023-01-09T04:35:19.296Z,6.50
2023-01-09T04:37:45.909Z,6.60
2023-01-09T04:40:13.281Z,6.50
2023-01-09T04:42:40.880Z,6.60
2023-01-09T04:45:09.634Z,6.50
2023-01-09T04:47:36.194Z,6.50
2023-01-09T04:50:03.068Z,6.40
2023-01-09T04:52:29.648Z,6.50
2023-01-09T04:54:56.291Z,6.40
2023-01-09T04:57:22.908Z,6.40
2023-01-09T04:59:49.499Z,6.40
2023-01-09T05:02:16.195Z,6.40
2023-01-09T05:04:42.819Z,6.30
2023-01-09T05:07:09.452Z,6.30
2023-01-09T05:09:36.083Z,6.30
2023-01-09T05:12:02.811Z,6.30
2023-01-09T05:14:29.449Z,6.30
2023-01-09T05:16:56.205Z,6.20
2023-01-09T05:19:23.566Z,6.30
2023-01-09T05:21:50.195Z,6.30
2023-01-09T05:24:16.824Z,6.30
2023-01-09T05:26:43.379Z,6.30
2023-01-09T05:29:10.058Z,6.30
2023-01-09T05:31:36.701Z,6.30
2023-01-09T05:34:03.464Z,6.30
2023-01-09T05:36:30.048Z,6.20
2023-01-09T05:38:57.835Z,6.30
2023-01-09T05:41:26.119Z,6.20
2023-01-09T05:43:52.747Z,6.10
2023-01-09T05:46:19.390Z,6.10
2023-01-09T05:48:46.190Z,6.20
2023-01-09T05:51:13.144Z,6.10
2023-01-09T05:53:39.729Z,6.10
2023-01-09T05:56:06.578Z,6.10
2023-01-09T05:58:33.340Z,6.10
2023-01-09T06:01:00.051Z,6.10
2023-01-09T06:03:26.659Z,6.10
2023-01-09T06:05:53.255Z,6.20
2023-01-09T06:08:19.838Z,6.10
2023-01-09T06:10:47.573Z,6.10
2023-01-09T06:13:14.728Z,6.10
2023-01-09T06:15:41.446Z,6.10
2023-01-09T06:18:08.068Z,6.10
2023-01-09T06:20:34.954Z,6.10
2023-01-09T06:23:01.632Z,6.10
2023-01-09T06:25:28.206Z,6.10
2023-01-09T06:27:54.778Z,6.20
2023-01-09T06:30:21.617Z,6.20
2023-01-09T06:32:49.397Z,6.10
2023-01-09T06:35:20.323Z,6.10
2023-01-09T06:37:48.328Z,6.20
2023-01-09T06:40:15.722Z,6.20
2023-01-09T06:42:49.207Z,6.20
2023-01-09T06:45:15.991Z,6.20
2023-01-09T06:47:42.692Z,6.20
2023-01-09T06:50:10.047Z,6.30
2023-01-09T06:52:37.579Z,6.30
2023-01-09T06:55:05.176Z,6.30
2023-01-09T06:57:31.784Z,6.20
2023-01-09T06:59:58.607Z,6.20
2023-01-09T07:02:25.331Z,6.20
2023-01-09T07:04:51.913Z,6.20
2023-01-09T07:07:20.322Z,6.10
2023-01-09T07:09:47.169Z,6.10
2023-01-09T07:12:15.288Z,6.20
2023-01-09T07:14:41.872Z,6.20
2023-01-09T07:17:09.851Z,6.10
2023-01-09T07:19:36.438Z,6.10
2023-01-09T07:22:03.021Z,6.20
2023-01-09T07:24:29.589Z,6.20
2023-01-09T07:26:56.215Z,6.20
2023-01-09T07:29:22.856Z,6.20
2023-01-09T07:31:49.617Z,6.10
2023-01-09T07:34:16.186Z,6.10
2023-01-09T07:36:46.337Z,6.00
2023-01-09T07:39:13.636Z,6.00
2023-01-09T07:41:40.505Z,5.90
2023-01-09T07:44:08.497Z,5.90
2023-01-09T07:46:37.072Z,5.80
2023-01-09T07:49:03.726Z,5.80
2023-01-09T07:51:30.330Z,5.90
2023-01-09T07:53:56.900Z,5.90
2023-01-09T07:56:23.611Z,5.90
2023-01-09T07:58:50.260Z,5.90
2023-01-09T08:01:17.008Z,5.90
2023-01-09T08:03:43.813Z,5.90
2023-01-09T08:06:10.488Z,5.90
2023-01-09T08:08:37.272Z,5.90
2023-01-09T08:11:03.986Z,6.00
2023-01-09T08:13:30.832Z,5.90
2023-01-09T08:15:57.461Z,6.00
2023-01-09T08:18:24.057Z,6.10
2023-01-09T08:20:50.716Z,6.10
2023-01-09T08:23:17.254Z,6.10
2023-01-09T08:25:43.863Z,6.10
2023-01-09T08:28:10.630Z,6.10
2023-01-09T08:30:38.411Z,6.20
2023-01-09T08:33:05.325Z,6.20
2023-01-09T08:35:31.946Z,6.30
2023-01-09T08:37:58.526Z,6.40
2023-01-09T08:40:25.407Z,6.40
2023-01-09T08:43:15.334Z,6.40
2023-01-09T08:46:00.630Z,6.50
2023-01-09T08:48:27.244Z,6.50
2023-01-09T08:50:54.263Z,6.50
2023-01-09T08:53:20.955Z,6.60
2023-01-09T08:55:47.736Z,6.60
2023-01-09T08:58:14.359Z,6.60
2023-01-09T09:00:41.191Z,6.60
2023-01-09T09:03:09.096Z,6.70
2023-01-09T09:05:35.891Z,6.70
2023-01-09T09:08:03.641Z,6.80
2023-01-09T09:10:30.629Z,6.80
2023-01-09T09:12:58.734Z,6.90
2023-01-09T09:15:26.751Z,6.90
2023-01-09T09:17:55.881Z,6.90
2023-01-09T09:20:26.641Z,6.90
2023-01-09T09:22:53.473Z,6.90
2023-01-09T09:25:20.627Z,6.90
2023-01-09T09:27:47.535Z,6.90
2023-01-09T09:30:17.135Z,7.00
2023-01-09T09:32:43.888Z,7.00
2023-01-09T09:35:11.118Z,7.00
2023-01-09T09:37:37.966Z,7.00
2023-01-09T09:40:17.633Z,7.00
2023-01-09T09:43:19.189Z,7.00
2023-01-09T09:46:14.977Z,7.00
2023-01-09T09:49:01.987Z,7.10
2023-01-09T09:51:44.413Z,7.20
2023-01-09T09:54:15.704Z,7.20
2023-01-09T09:56:51.004Z,7.30
2023-01-09T09:59:21.172Z,7.40
2023-01-09T10:02:21.249Z,7.40
2023-01-09T10:04:55.229Z,7.50
2023-01-09T10:07:35.409Z,7.50
2023-01-09T10:10:05.804Z,7.60
2023-01-09T10:12:54.675Z,7.60
2023-01-09T10:15:23.986Z,7.70
2023-01-09T10:18:06.947Z,7.70
2023-01-09T10:20:33.756Z,7.70
2023-01-09T10:23:29.121Z,7.80
2023-01-09T10:26:06.641Z,7.80
2023-01-09T10:28:42.579Z,7.80
2023-01-09T10:31:27.242Z,7.80
2023-01-09T10:34:18.054Z,7.90
2023-01-09T10:37:22.860Z,7.80
2023-01-09T10:40:07.929Z,7.80
2023-01-09T10:42:52.783Z,7.70
2023-01-09T10:45:34.832Z,7.30
2023-01-09T10:48:36.155Z,7.20
2023-01-09T10:51:21.386Z,7.00
2023-01-09T10:53:57.055Z,7.10
2023-01-09T10:56:39.361Z,7.10
2023-01-09T10:59:08.663Z,7.10
2023-01-09T11:01:39.400Z,7.00
2023-01-09T11:04:28.837Z,7.10
2023-01-09T11:07:04.630Z,7.10
2023-01-09T11:10:18.164Z,7.10
2023-01-09T11:12:44.976Z,7.00
2023-01-09T11:15:19.423Z,7.10
2023-01-09T11:17:47.437Z,7.10
2023-01-09T11:20:23.963Z,7.10
2023-01-09T11:22:55.460Z,7.10
2023-01-09T11:25:24.860Z,7.10
2023-01-09T11:28:03.156Z,7.10
2023-01-09T11:30:34.092Z,6.90
2023-01-09T11:33:00.914Z,6.80
2023-01-09T11:35:34.580Z,6.80
2023-01-09T11:38:12.755Z,6.90
2023-01-09T11:40:56.889Z,6.90
2023-01-09T11:43:38.389Z,6.90
2023-01-09T11:46:08.051Z,6.90
2023-01-09T11:48:38.409Z,7.00
2023-01-09T11:51:20.885Z,7.10
2023-01-09T11:53:56.595Z,7.20
2023-01-09T11:56:23.871Z,7.20
2023-01-09T11:58:50.982Z,7.30
2023-01-09T12:01:36.404Z,7.30
2023-01-09T12:04:25.423Z,7.20
2023-01-09T12:07:00.960Z,7.30
2023-01-09T12:09:42.371Z,7.30
2023-01-09T12:12:08.880Z,7.30
2023-01-09T12:14:45.796Z,7.20
2023-01-09T12:17:21.530Z,7.10
2023-01-09T12:20:00.608Z,7.00
2023-01-09T12:22:44.829Z,7.00
2023-01-09T12:25:59.535Z,7.00
2023-01-09T12:28:46.335Z,7.00
2023-01-09T12:31:21.823Z,7.00
2023-01-09T12:34:04.551Z,7.00
2023-01-09T12:36:31.149Z,6.90
2023-01-09T12:39:09.745Z,6.90
2023-01-09T12:41:44.623Z,6.90
2023-01-09T12:44:45.424Z,6.80
2023-01-09T12:47:35.924Z,6.90
2023-01-09T12:50:14.394Z,7.00
2023-01-09T12:53:09.094Z,7.10
2023-01-09T12:55:44.561Z,7.10
2023-01-09T12:58:46.373Z,7.10
2023-01-09T13:01:29.196Z,7.20
2023-01-09T13:04:04.783Z,7.20
2023-01-09T13:06:33.963Z,7.20
2023-01-09T13:09:12.714Z,7.10
2023-01-09T13:11:47.081Z,7.10
2023-01-09T13:14:23.454Z,7.10
2023-01-09T13:16:55.068Z,7.20
2023-01-09T13:19:27.997Z,7.20
2023-01-09T13:21:56.628Z,7.30
2023-01-09T13:24:31.711Z,7.30
2023-01-09T13:27:20.455Z,7.30
2023-01-09T13:30:08.132Z,7.20
2023-01-09T13:32:46.934Z,7.30
2023-01-09T13:35:14.697Z,7.30
2023-01-09T13:37:43.036Z,7.30
2023-01-09T13:40:18.901Z,7.20
2023-01-09T13:43:02.310Z,7.10
2023-01-09T13:45:31.283Z,7.10
2023-01-09T13:48:17.549Z,7.00
2023-01-09T13:50:45.841Z,7.00
2023-01-09T13:53:18.721Z,7.00
2023-01-09T13:56:05.678Z,6.90
2023-01-09T13:58:38.242Z,6.80
2023-01-09T14:01:24.739Z,6.80
2023-01-09T14:04:09.916Z,6.70
2023-01-09T14:06:36.579Z,6.70
2023-01-09T14:09:19.766Z,6.70
2023-01-09T14:11:47.531Z,6.50
2023-01-09T14:14:26.449Z,6.50
2023-01-09T14:16:53.132Z,6.50
2023-01-09T14:19:30.951Z,6.50
2023-01-09T14:21:58.129Z,6.50
2023-01-09T14:24:29.915Z,6.50
2023-01-09T14:26:58.892Z,6.40
2023-01-09T14:29:39.266Z,6.40
2023-01-09T14:32:26.002Z,6.30
2023-01-09T14:34:55.936Z,6.20
2023-01-09T14:37:23.017Z,6.20
2023-01-09T14:39:50.867Z,6.20
2023-01-09T14:42:23.661Z,6.10
2023-01-09T14:45:06.108Z,6.10
2023-01-09T14:47:39.754Z,6.20
2023-01-09T14:50:26.186Z,6.20
2023-01-09T14:53:06.876Z,6.20
2023-01-09T14:55:47.635Z,6.00
2023-01-09T14:58:23.838Z,6.00
2023-01-09T15:00:58.899Z,6.00
2023-01-09T15:03:29.399Z,6.00
2023-01-09T15:05:56.137Z,6.00
2023-01-09T15:08:26.784Z,6.10
2023-01-09T15:10:55.394Z,6.00
2023-01-09T15:13:36.000Z,6.00
2023-01-09T15:16:05.830Z,6.10
2023-01-09T15:18:42.533Z,6.00
2023-01-09T15:21:18.848Z,6.10
2023-01-09T15:23:45.612Z,6.20
2023-01-09T15:26:25.214Z,6.20
2023-01-09T15:28:53.769Z,6.10
2023-01-09T15:31:23.667Z,6.10
2023-01-09T15:33:53.134Z,6.00
2023-01-09T15:36:28.185Z,5.90
2023-01-09T15:38:55.082Z,5.90
2023-01-09T15:41:45.947Z,5.90
2023-01-09T15:44:17.787Z,5.80
2023-01-09T15:46:46.449Z,5.70
2023-01-09T15:49:14.168Z,5.50
2023-01-09T15:51:43.554Z,5.50
2023-01-09T15:54:27.159Z,5.60
2023-01-09T15:56:53.819Z,5.60
2023-01-09T15:59:27.258Z,5.60
2023-01-09T16:02:22.254Z,5.60
2023-01-09T16:04:50.779Z,5.50
2023-01-09T16:07:20.725Z,5.60
2023-01-09T16:09:48.715Z,5.70
2023-01-09T16:12:26.897Z,5.70
2023-01-09T16:14:59.229Z,5.80
2023-01-09T16:17:27.259Z,5.90
2023-01-09T16:20:18.142Z,5.90
2023-01-09T16:22:54.299Z,5.80
2023-01-09T16:25:30.079Z,5.90
2023-01-09T16:28:30.733Z,5.90
2023-01-09T16:31:01.513Z,5.80
2023-01-09T16:33:30.385Z,5.80
2023-01-09T16:35:58.739Z,5.90
2023-01-09T16:38:28.360Z,5.90
2023-01-09T16:41:26.705Z,5.80
2023-01-09T16:43:53.372Z,5.80
2023-01-09T16:46:21.427Z,5.80
2023-01-09T16:48:49.167Z,5.70
2023-01-09T16:51:21.744Z,5.80
2023-01-09T16:53:49.617Z,5.70
2023-01-09T16:56:25.013Z,5.80
2023-01-09T16:58:54.901Z,5.80
2023-01-09T17:01:22.834Z,5.80
2023-01-09T17:03:50.295Z,5.90
2023-01-09T17:06:28.034Z,6.00
2023-01-09T17:08:54.674Z,6.00
2023-01-09T17:11:31.989Z,6.10
2023-01-09T17:14:00.194Z,6.00
2023-01-09T17:16:27.717Z,6.00
2023-01-09T17:18:54.669Z,5.90
2023-01-09T17:21:23.729Z,5.90
2023-01-09T17:24:09.482Z,5.90
2023-01-09T17:26:56.792Z,5.90
2023-01-09T17:29:23.610Z,5.70
2023-01-09T17:31:50.285Z,5.70
2023-01-09T17:34:16.913Z,5.60
2023-01-09T17:36:44.325Z,5.60
2023-01-09T17:39:15.937Z,5.50
2023-01-09T17:41:43.300Z,5.60
2023-01-09T17:44:11.400Z,5.50
2023-01-09T17:46:41.120Z,5.60
2023-01-09T17:49:15.010Z,5.50
2023-01-09T17:51:41.556Z,5.40
2023-01-09T17:54:08.886Z,5.40
2023-01-09T17:56:37.506Z,5.40
2023-01-09T17:59:05.299Z,5.50
2023-01-09T18:01:32.021Z,5.50
2023-01-09T18:03:58.734Z,5.60
2023-01-09T18:06:25.397Z,5.60
2023-01-09T18:08:52.114Z,5.60
2023-01-09T18:11:21.440Z,5.60
2023-01-09T18:13:49.583Z,5.50
2023-01-09T18:16:19.401Z,5.50
2023-01-09T18:18:47.248Z,5.50
2023-01-09T18:21:17.049Z,5.50
2023-01-09T18:23:43.693Z,5.60
2023-01-09T18:26:11.496Z,5.60
2023-01-09T18:28:39.194Z,5.60
2023-01-09T18:31:06.318Z,5.70
2023-01-09T18:33:33.072Z,5.70
2023-01-09T18:36:08.660Z,5.70
2023-01-09T18:38:35.860Z,5.70
2023-01-09T18:41:04.345Z,5.70
2023-01-09T18:43:31.386Z,5.70
2023-01-09T18:45:58.047Z,5.70
2023-01-09T18:48:24.819Z,5.70
2023-01-09T18:50:51.346Z,5.70
2023-01-09T18:53:18.059Z,5.70
2023-01-09T18:55:44.675Z,5.70
2023-01-09T18:58:11.254Z,5.80
2023-01-09T19:00:37.861Z,5.70
2023-01-09T19:03:04.497Z,5.60
2023-01-09T19:05:33.626Z,5.70
2023-01-09T19:08:00.176Z,5.70
2023-01-09T19:10:26.788Z,5.70
2023-01-09T19:12:53.387Z,5.80
2023-01-09T19:15:19.938Z,5.90
2023-01-09T19:17:47.046Z,5.90
2023-01-09T19:20:13.653Z,5.90
2023-01-09T19:22:40.246Z,5.80
2023-01-09T19:25:07.205Z,5.80
2023-01-09T19:27:33.891Z,5.80
2023-01-09T19:30:00.543Z,5.70
2023-01-09T19:32:27.114Z,5.70
2023-01-09T19:34:53.693Z,5.70
2023-01-09T19:37:20.336Z,5.70
2023-01-09T19:39:46.976Z,5.70
2023-01-09T19:42:14.296Z,5.70
2023-01-09T19:44:40.921Z,5.70
2023-01-09T19:47:08.054Z,5.70
2023-01-09T19:49:34.686Z,5.80
2023-01-09T19:52:01.273Z,5.80
2023-01-09T19:54:29.141Z,5.70
2023-01-09T19:56:55.836Z,5.60
2023-01-09T19:59:22.631Z,5.70
2023-01-09T20:01:49.587Z,5.70
2023-01-09T20:04:17.366Z,5.60
2023-01-09T20:06:47.464Z,5.70
2023-01-09T20:09:19.273Z,5.70
2023-01-09T20:11:46.102Z,5.70
2023-01-09T20:14:14.321Z,5.70
2023-01-09T20:16:41.749Z,5.70
2023-01-09T20:19:11.767Z,5.70
2023-01-09T20:21:38.694Z,5.70
2023-01-09T20:24:06.326Z,5.70
2023-01-09T20:26:37.074Z,5.70
2023-01-09T20:29:04.251Z,5.70
2023-01-09T20:31:32.475Z,5.80
2023-01-09T20:33:59.969Z,5.80
2023-01-09T20:36:28.997Z,5.80
2023-01-09T20:39:01.114Z,5.90
2023-01-09T20:41:30.564Z,5.90
2023-01-09T20:44:00.204Z,5.90
2023-01-09T20:46:29.615Z,5.90
2023-01-09T20:48:58.486Z,5.80
2023-01-09T20:51:25.926Z,5.80
2023-01-09T20:53:55.803Z,5.60
2023-01-09T20:56:27.003Z,5.70
2023-01-09T20:58:53.865Z,5.60
2023-01-09T21:01:22.627Z,5.60
2023-01-09T21:03:50.402Z,5.50
2023-01-09T21:06:18.176Z,5.50
2023-01-09T21:08:46.949Z,5.50
2023-01-09T21:11:14.501Z,5.50
2023-01-09T21:13:41.541Z,5.50
2023-01-09T21:16:11.963Z,5.50
2023-01-09T21:18:39.411Z,5.40
2023-01-09T21:21:08.020Z,5.40
2023-01-09T21:23:34.897Z,5.40
2023-01-09T21:26:07.351Z,5.30
2023-01-09T21:28:39.577Z,5.40
2023-01-09T21:31:06.126Z,5.40
2023-01-09T21:33:32.702Z,5.40
2023-01-09T21:35:59.324Z,5.40
2023-01-09T21:38:26.406Z,5.50
2023-01-09T21:40:53.873Z,5.40
2023-01-09T21:43:47.788Z,5.40
2023-01-09T21:46:37.019Z,5.40
2023-01-09T21:49:05.373Z,5.50
2023-01-09T21:51:36.461Z,5.40
2023-01-09T21:54:03.141Z,5.30
2023-01-09T21:56:29.728Z,5.30
2023-01-09T21:58:56.293Z,5.30
2023-01-09T22:01:22.874Z,5.30
2023-01-09T22:03:49.597Z,5.20
2023-01-09T22:06:16.176Z,5.20
2023-01-09T22:08:42.813Z,5.20
2023-01-09T22:11:09.384Z,5.00
2023-01-09T22:13:36.006Z,5.00
2023-01-09T22:16:04.743Z,5.00
2023-01-09T22:18:32.525Z,4.90
2023-01-09T22:20:59.101Z,5.00
2023-01-09T22:23:26.232Z,5.00
2023-01-09T22:25:53.259Z,5.00
2023-01-09T22:28:20.427Z,4.90
2023-01-09T22:30:47.034Z,5.00
2023-01-09T22:33:14.575Z,5.00
2023-01-09T22:35:42.363Z,4.90
2023-01-09T22:38:10.737Z,5.00
2023-01-09T22:40:38.507Z,4.80
2023-01-09T22:43:05.901Z,4.80
2023-01-09T22:45:33.756Z,4.70
2023-01-09T22:48:00.381Z,4.70
2023-01-09T22:50:26.983Z,4.70
2023-01-09T22:52:53.553Z,4.80
2023-01-09T22:55:20.137Z,4.70
2023-01-09T22:57:46.679Z,4.70
2023-01-09T23:00:14.720Z,4.80
2023-01-09T23:02:41.420Z,4.80
2023-01-09T23:05:08.308Z,4.90
2023-01-09T23:07:36.013Z,4.80
2023-01-09T23:10:03.458Z,4.80
2023-01-09T23:12:30.146Z,4.90
2023-01-09T23:14:56.681Z,4.90
2023-01-09T23:17:23.267Z,5.00
2023-01-09T23:19:49.819Z,5.00
2023-01-09T23:22:16.446Z,5.00
2023-01-09T23:24:43.001Z,5.00
2023-01-09T23:27:09.639Z,5.00
2023-01-09T23:29:39.328Z,5.00
2023-01-09T23:32:06.606Z,5.00
2023-01-09T23:34:33.717Z,5.00
2023-01-09T23:37:00.636Z,4.90
2023-01-09T23:39:27.276Z,5.00
2023-01-09T23:42:12.381Z,5.00
2023-01-09T23:44:39.040Z,4.90
2023-01-09T23:47:05.678Z,5.00
2023-01-09T23:49:32.643Z,5.00
2023-01-09T23:52:01.580Z,5.00
2023-01-09T23:54:28.543Z,5.00
2023-01-09T23:56:56.387Z,4.90
2023-01-09T23:59:22.994Z,4.90
